MA30 weather

Dresser Hill Airport
Charlton, Massachusetts, United States

Public forecast

Using degrees Fahrenheit for public forecast. Weather courtesy of forecast.io.

METAR (pilot weather report)

Closest report is Worcester Regional Airport, 10.8 nm (20.0 km) NNE. Retrieved 2019/09/22 18:54 UTC (31 minutes ago):

KORH 221854Z 23011KT 10SM CLR 27/14 A3009 RMK AO2 SLP187 T02670139

TAF (pilot weather forecast)

Closest forecast is Worcester Regional Airport, 10.8 nm (20.0 km) NNE. Retrieved 2019/09/22 18:36 UTC (49 minutes ago):

TAF KORH 221734Z 2218/2318 24012G20KT P6SM BKN250 FM222200 22009KT P6SM SCT250 FM230300 23010G18KT P6SM SCT250 FM231100 23010G19KT P6SM SCT250 FM231200 23010G18KT P6SM BKN250 FM231700 23012G22KT P6SM FEW050 SCT150 BKN200